createdAt,value
2019-02-17T00:00:45.256Z,102038.09
2019-02-17T00:01:50.544Z,102041.49
2019-02-17T00:02:55.516Z,102028.68
2019-02-17T00:04:00.774Z,102038.55
2019-02-17T00:05:05.784Z,102038.45
2019-02-17T00:06:10.475Z,102038.13
2019-02-17T00:07:15.487Z,102038.30
2019-02-17T00:08:20.933Z,102035.73
2019-02-17T00:09:26.042Z,102037.05
2019-02-17T00:10:33.244Z,102035.75
2019-02-17T00:11:38.548Z,102033.80
2019-02-17T00:12:43.241Z,102031.72
2019-02-17T00:13:47.943Z,102027.88
2019-02-17T00:14:53.323Z,102037.26
2019-02-17T00:15:58.346Z,102034.42
2019-02-17T00:17:03.618Z,102030.95
2019-02-17T00:18:08.406Z,102028.59
2019-02-17T00:19:13.721Z,102033.78
2019-02-17T00:20:18.539Z,102027.06
2019-02-17T00:21:23.671Z,102028.75
2019-02-17T00:22:28.621Z,102031.91
2019-02-17T00:23:33.879Z,102028.37
2019-02-17T00:24:39.190Z,102028.45
2019-02-17T00:25:44.179Z,102030.53
2019-02-17T00:26:48.881Z,102026.39
2019-02-17T00:27:54.368Z,102033.67
2019-02-17T00:28:59.980Z,102027.88
2019-02-17T00:30:05.017Z,102024.86
2019-02-17T00:31:10.576Z,102028.58
2019-02-17T00:32:15.617Z,102021.82
2019-02-17T00:33:20.851Z,102017.34
2019-02-17T00:34:25.837Z,102019.48
2019-02-17T00:35:30.834Z,102016.77
2019-02-17T00:36:36.086Z,102021.13
2019-02-17T00:37:41.362Z,102017.52
2019-02-17T00:38:46.343Z,102021.72
2019-02-17T00:39:51.438Z,102016.50
2019-02-17T00:40:56.422Z,102018.42
2019-02-17T00:42:01.855Z,102018.91
2019-02-17T00:43:06.842Z,102020.52
2019-02-17T00:44:11.812Z,102016.23
2019-02-17T00:45:16.875Z,102021.64
2019-02-17T00:46:21.926Z,102021.31
2019-02-17T00:47:27.470Z,102017.59
2019-02-17T00:48:32.455Z,102020.93
2019-02-17T00:49:37.976Z,102017.56
2019-02-17T00:50:42.533Z,102018.34
2019-02-17T00:51:47.167Z,102021.56
2019-02-17T00:52:52.532Z,102022.27
2019-02-17T00:53:57.309Z,102019.94
2019-02-17T00:55:02.273Z,102017.77
2019-02-17T00:56:06.740Z,102016.39
2019-02-17T00:57:11.184Z,102008.29
2019-02-17T00:58:16.139Z,102008.93
2019-02-17T00:59:21.097Z,102011.64
2019-02-17T01:00:26.391Z,102009.02
2019-02-17T01:01:31.616Z,102009.35
2019-02-17T01:02:36.622Z,102004.62
2019-02-17T01:03:41.610Z,102007.44
2019-02-17T01:04:46.886Z,102006.36
2019-02-17T01:05:52.287Z,102012.23
2019-02-17T01:06:57.561Z,102009.31
2019-02-17T01:08:02.910Z,102012.02
2019-02-17T01:09:08.118Z,102009.28
2019-02-17T01:10:12.816Z,102004.88
2019-02-17T01:11:17.805Z,102010.13
2019-02-17T01:12:23.154Z,102005.27
2019-02-17T01:13:27.606Z,102001.77
2019-02-17T01:14:32.294Z,102004.19
2019-02-17T01:15:36.988Z,102007.41
2019-02-17T01:16:41.443Z,102007.44
2019-02-17T01:17:46.429Z,102007.18
2019-02-17T01:18:51.512Z,102011.81
2019-02-17T01:19:57.200Z,102001.84
2019-02-17T01:21:01.983Z,102004.27
2019-02-17T01:22:06.692Z,102007.87
2019-02-17T01:23:12.279Z,102007.78
2019-02-17T01:24:17.179Z,102010.34
2019-02-17T01:25:22.454Z,102010.30
2019-02-17T01:26:27.476Z,102009.53
2019-02-17T01:27:32.512Z,102010.19
2019-02-17T01:28:38.133Z,102009.02
2019-02-17T01:29:43.412Z,102006.77
2019-02-17T01:30:48.726Z,102004.93
2019-02-17T01:31:53.745Z,102006.77
2019-02-17T01:32:59.106Z,102007.91
2019-02-17T01:34:10.843Z,102009.55
2019-02-17T01:35:16.462Z,102008.23
2019-02-17T01:36:21.619Z,102001.28
2019-02-17T01:37:26.619Z,102004.28
2019-02-17T01:38:31.696Z,102006.87
2019-02-17T01:39:36.986Z,102005.41
2019-02-17T01:40:42.411Z,102006.37
2019-02-17T01:41:47.505Z,102003.33
2019-02-17T01:42:52.901Z,102009.02
2019-02-17T01:43:58.150Z,101997.85
2019-02-17T01:45:03.138Z,102001.39
2019-02-17T01:46:08.398Z,101995.87
2019-02-17T01:47:12.839Z,101998.53
2019-02-17T01:48:18.169Z,101996.03
2019-02-17T01:49:23.157Z,101997.13
2019-02-17T01:50:28.419Z,101996.45
2019-02-17T01:51:33.117Z,101999.37
2019-02-17T01:52:38.704Z,101992.41
2019-02-17T01:53:43.434Z,101992.95
2019-02-17T01:54:48.473Z,101992.73
2019-02-17T01:55:53.547Z,101994.41
2019-02-17T01:56:58.622Z,101987.91
2019-02-17T01:58:03.630Z,101986.51
2019-02-17T01:59:08.914Z,101980.52
2019-02-17T02:00:14.359Z,101985.97
2019-02-17T02:01:19.796Z,101980.13
2019-02-17T02:02:25.081Z,101984.95
2019-02-17T02:03:30.106Z,101983.59
2019-02-17T02:04:35.680Z,101976.20
2019-02-17T02:05:40.398Z,101982.56
2019-02-17T02:06:45.741Z,101984.19
2019-02-17T02:07:51.026Z,101980.00
2019-02-17T02:08:56.807Z,101973.84
2019-02-17T02:10:01.590Z,101981.64
2019-02-17T02:11:07.171Z,101975.59
2019-02-17T02:12:12.140Z,101976.12
2019-02-17T02:13:17.128Z,101979.89
2019-02-17T02:14:22.645Z,101973.66
2019-02-17T02:15:27.904Z,101975.10
2019-02-17T02:16:32.896Z,101973.47
2019-02-17T02:17:37.871Z,101979.47
2019-02-17T02:18:42.943Z,101973.49
2019-02-17T02:19:48.206Z,101971.49
2019-02-17T02:20:53.485Z,101967.25
2019-02-17T02:21:59.076Z,101968.48
2019-02-17T02:23:04.048Z,101965.34
2019-02-17T02:24:09.050Z,101970.59
2019-02-17T02:25:13.774Z,101961.16
2019-02-17T02:26:18.747Z,101964.59
2019-02-17T02:27:23.471Z,101959.45
2019-02-17T02:28:28.761Z,101958.56
2019-02-17T02:29:40.812Z,101958.64
2019-02-17T02:30:41.150Z,101961.03
2019-02-17T02:31:46.451Z,101951.58
2019-02-17T02:32:51.481Z,101952.39
2019-02-17T02:33:56.695Z,101955.62
2019-02-17T02:35:01.683Z,101949.38
2019-02-17T02:36:06.963Z,101953.89
2019-02-17T02:37:11.961Z,101952.87
2019-02-17T02:38:16.919Z,101949.77
2019-02-17T02:39:21.968Z,101947.92
2019-02-17T02:40:26.947Z,101949.80
2019-02-17T02:41:34.973Z,101946.53
2019-02-17T02:42:39.262Z,101947.50
2019-02-17T02:43:44.210Z,101951.73
2019-02-17T02:44:48.902Z,101950.25
2019-02-17T02:45:53.392Z,101948.31
2019-02-17T02:46:58.410Z,101948.91
2019-02-17T02:48:03.925Z,101949.45
2019-02-17T02:49:09.207Z,101946.78
2019-02-17T02:50:14.010Z,101945.47
2019-02-17T02:51:19.317Z,101943.45
2019-02-17T02:52:24.031Z,101942.14
2019-02-17T02:53:29.011Z,101944.39
2019-02-17T02:54:34.649Z,101943.23
2019-02-17T02:55:39.378Z,101942.77
2019-02-17T02:56:44.369Z,101939.84
2019-02-17T02:57:49.380Z,101938.70
2019-02-17T02:58:54.171Z,101935.99
2019-02-17T02:59:59.139Z,101941.80
2019-02-17T03:01:05.566Z,101935.82
2019-02-17T03:02:10.832Z,101937.46
2019-02-17T03:03:15.793Z,101937.98
2019-02-17T03:04:20.740Z,101933.61
2019-02-17T03:05:25.342Z,101934.72
2019-02-17T03:06:48.921Z,101931.25
2019-02-17T03:07:54.278Z,101933.33
2019-02-17T03:08:59.672Z,101931.51
2019-02-17T03:10:04.769Z,101926.78
2019-02-17T03:11:10.012Z,101927.56
2019-02-17T03:12:14.715Z,101933.52
2019-02-17T03:13:19.705Z,101924.97
2019-02-17T03:14:24.436Z,101926.17
2019-02-17T03:15:29.481Z,101928.59
2019-02-17T03:16:34.500Z,101924.62
2019-02-17T03:17:39.779Z,101928.86
2019-02-17T03:18:44.483Z,101925.42
2019-02-17T03:19:49.743Z,101923.22
2019-02-17T03:20:54.699Z,101929.47
2019-02-17T03:22:00.277Z,101926.78
2019-02-17T03:23:05.227Z,101925.22
2019-02-17T03:24:10.266Z,101921.13
2019-02-17T03:25:15.547Z,101922.19
2019-02-17T03:26:20.807Z,101922.19
2019-02-17T03:27:25.968Z,101920.38
2019-02-17T03:28:31.378Z,101925.98
2019-02-17T03:29:36.923Z,101919.27
2019-02-17T03:30:42.159Z,101922.38
2019-02-17T03:31:47.699Z,101921.73
2019-02-17T03:32:52.749Z,101925.16
2019-02-17T03:33:57.758Z,101915.24
2019-02-17T03:35:02.991Z,101912.48
2019-02-17T03:36:08.244Z,101917.87
2019-02-17T03:37:13.226Z,101917.03
2019-02-17T03:38:18.259Z,101918.88
2019-02-17T03:39:23.807Z,101914.19
2019-02-17T03:40:28.767Z,101915.55
2019-02-17T03:41:33.825Z,101919.79
2019-02-17T03:42:39.132Z,101921.37
2019-02-17T03:43:44.564Z,101915.09
2019-02-17T03:44:49.534Z,101917.01
2019-02-17T03:45:54.811Z,101908.43
2019-02-17T03:47:00.381Z,101918.24
2019-02-17T03:48:04.914Z,101915.84
2019-02-17T03:49:10.153Z,101920.34
2019-02-17T03:50:15.122Z,101919.60
2019-02-17T03:51:20.412Z,101917.78
2019-02-17T03:52:26.907Z,101918.70
2019-02-17T03:53:32.420Z,101918.73
2019-02-17T03:54:37.983Z,101924.00
2019-02-17T03:55:42.707Z,101924.77
2019-02-17T03:56:48.331Z,101921.20
2019-02-17T03:57:53.354Z,101925.64
2019-02-17T03:58:58.618Z,101920.39
2019-02-17T04:00:03.313Z,101917.20
2019-02-17T04:01:07.804Z,101916.44
2019-02-17T04:02:13.051Z,101914.19
2019-02-17T04:03:18.353Z,101913.12
2019-02-17T04:04:23.050Z,101913.05
2019-02-17T04:05:28.395Z,101912.84
2019-02-17T04:06:33.695Z,101912.23
2019-02-17T04:07:38.957Z,101908.50
2019-02-17T04:08:44.275Z,101909.23
2019-02-17T04:09:49.056Z,101911.78
2019-02-17T04:10:54.193Z,101910.45
2019-02-17T04:11:58.885Z,101907.52
2019-02-17T04:13:03.598Z,101910.89
2019-02-17T04:14:08.657Z,101904.83
2019-02-17T04:15:13.658Z,101904.75
2019-02-17T04:16:18.688Z,101907.45
2019-02-17T04:17:23.385Z,101910.80
2019-02-17T04:18:28.104Z,101900.14
2019-02-17T04:19:33.677Z,101903.71
2019-02-17T04:20:39.203Z,101900.80
2019-02-17T04:21:44.188Z,101896.93
2019-02-17T04:22:49.786Z,101895.33
2019-02-17T04:23:54.746Z,101896.08
2019-02-17T04:25:02.199Z,101890.45
2019-02-17T04:26:06.962Z,101890.61
2019-02-17T04:27:11.643Z,101890.95
2019-02-17T04:28:17.225Z,101890.13
2019-02-17T04:29:22.572Z,101891.03
2019-02-17T04:30:29.545Z,101880.73
2019-02-17T04:31:35.096Z,101890.34
2019-02-17T04:32:40.054Z,101887.14
2019-02-17T04:33:45.327Z,101887.05
2019-02-17T04:34:50.348Z,101886.51
2019-02-17T04:35:55.599Z,101881.08
2019-02-17T04:37:00.891Z,101878.46
2019-02-17T04:38:06.154Z,101880.27
2019-02-17T04:39:10.845Z,101882.94
2019-02-17T04:40:16.283Z,101879.76
2019-02-17T04:41:21.274Z,101878.28
2019-02-17T04:42:27.113Z,101879.44
2019-02-17T04:43:32.530Z,101880.63
2019-02-17T04:44:38.103Z,101884.95
2019-02-17T04:45:43.732Z,101880.63
2019-02-17T04:46:48.732Z,101886.98
2019-02-17T04:47:54.334Z,101876.81
2019-02-17T04:48:59.394Z,101887.59
2019-02-17T04:50:04.564Z,101885.28
2019-02-17T04:51:09.633Z,101882.91
2019-02-17T04:52:15.296Z,101879.54
2019-02-17T04:53:20.676Z,101882.21
2019-02-17T04:54:26.068Z,101879.13
2019-02-17T04:55:31.715Z,101880.03
2019-02-17T04:56:36.829Z,101877.65
2019-02-17T04:57:41.752Z,101873.66
2019-02-17T04:58:46.914Z,101873.49
2019-02-17T04:59:52.066Z,101871.82
2019-02-17T05:00:57.422Z,101871.94
2019-02-17T05:02:02.167Z,101864.44
2019-02-17T05:03:07.782Z,101867.80
2019-02-17T05:04:13.061Z,101871.54
2019-02-17T05:05:18.034Z,101871.89
2019-02-17T05:06:22.819Z,101878.39
2019-02-17T05:07:28.079Z,101875.77
2019-02-17T05:08:33.629Z,101866.86
2019-02-17T05:09:38.915Z,101870.21
2019-02-17T05:10:43.905Z,101867.80
2019-02-17T05:11:49.498Z,101869.83
2019-02-17T05:12:55.233Z,101869.12
2019-02-17T05:14:00.502Z,101869.16
2019-02-17T05:15:05.366Z,101870.53
2019-02-17T05:16:10.709Z,101868.56
2019-02-17T05:17:16.035Z,101870.52
2019-02-17T05:18:21.286Z,101870.17
2019-02-17T05:19:26.849Z,101867.68
2019-02-17T05:20:31.810Z,101874.06
2019-02-17T05:21:37.043Z,101874.79
2019-02-17T05:22:42.204Z,101877.09
2019-02-17T05:23:46.891Z,101879.02
2019-02-17T05:24:51.421Z,101878.25
2019-02-17T05:25:56.688Z,101881.29
2019-02-17T05:27:01.660Z,101880.03
2019-02-17T05:28:06.637Z,101877.27
2019-02-17T05:29:12.226Z,101877.95
2019-02-17T05:30:17.451Z,101874.70
2019-02-17T05:31:23.005Z,101878.61
2019-02-17T05:32:27.687Z,101872.16
2019-02-17T05:33:32.981Z,101872.13
2019-02-17T05:34:37.482Z,101873.45
2019-02-17T05:35:42.787Z,101870.16
2019-02-17T05:36:47.483Z,101872.93
2019-02-17T05:37:55.235Z,101872.08
2019-02-17T05:39:01.022Z,101868.37
2019-02-17T05:40:05.868Z,101868.71
2019-02-17T05:41:10.818Z,101874.83
2019-02-17T05:42:16.395Z,101867.24
2019-02-17T05:43:21.430Z,101869.20
2019-02-17T05:44:26.816Z,101866.88
2019-02-17T05:45:32.412Z,101865.17
2019-02-17T05:46:37.742Z,101864.91
2019-02-17T05:47:43.016Z,101863.36
2019-02-17T05:48:48.082Z,101861.44
2019-02-17T05:49:53.208Z,101861.91
2019-02-17T05:50:57.921Z,101856.80
2019-02-17T05:52:03.221Z,101857.34
2019-02-17T05:53:08.145Z,101856.82
2019-02-17T05:54:13.712Z,101854.02
2019-02-17T05:55:19.303Z,101855.34
2019-02-17T05:56:24.734Z,101853.08
2019-02-17T05:57:29.774Z,101855.39
2019-02-17T05:58:35.040Z,101849.38
2019-02-17T05:59:40.444Z,101853.82
2019-02-17T06:00:45.495Z,101844.78
2019-02-17T06:01:50.785Z,101847.52
2019-02-17T06:02:56.089Z,101841.70
2019-02-17T06:04:01.053Z,101846.12
2019-02-17T06:05:05.859Z,101843.60
2019-02-17T06:06:10.869Z,101844.67
2019-02-17T06:07:15.837Z,101838.63
2019-02-17T06:08:20.854Z,101838.09
2019-02-17T06:09:26.419Z,101839.70
2019-02-17T06:10:31.708Z,101836.24
2019-02-17T06:11:36.977Z,101839.66
2019-02-17T06:12:42.936Z,101840.66
2019-02-17T06:13:47.911Z,101842.33
2019-02-17T06:14:53.729Z,101843.77
2019-02-17T06:15:59.000Z,101841.55
2019-02-17T06:17:04.283Z,101846.43
2019-02-17T06:18:09.629Z,101848.70
2019-02-17T06:19:17.616Z,101850.68
2019-02-17T06:20:22.512Z,101841.83
2019-02-17T06:21:27.526Z,101844.66
2019-02-17T06:22:32.222Z,101845.69
2019-02-17T06:23:37.476Z,101850.58
2019-02-17T06:24:42.206Z,101847.66
2019-02-17T06:25:46.963Z,101845.66
2019-02-17T06:26:52.191Z,101848.91
2019-02-17T06:27:57.427Z,101851.40
2019-02-17T06:29:02.394Z,101848.23
2019-02-17T06:30:07.498Z,101847.59
2019-02-17T06:31:14.657Z,101850.11
2019-02-17T06:32:18.497Z,101844.90
2019-02-17T06:33:24.361Z,101854.33
2019-02-17T06:34:29.613Z,101858.98
2019-02-17T06:35:34.611Z,101855.13
2019-02-17T06:36:40.930Z,101853.86
2019-02-17T06:37:46.333Z,101859.35
2019-02-17T06:38:52.227Z,101850.24
2019-02-17T06:39:57.563Z,101855.31
2019-02-17T06:41:02.845Z,101855.93
2019-02-17T06:42:08.146Z,101852.38
2019-02-17T06:43:12.856Z,101854.41
2019-02-17T06:44:18.133Z,101855.44
2019-02-17T06:45:22.813Z,101851.48
2019-02-17T06:46:31.935Z,101858.89
2019-02-17T06:47:36.898Z,101861.58
2019-02-17T06:48:42.358Z,101849.28
2019-02-17T06:49:47.339Z,101857.58
2019-02-17T06:50:52.602Z,101853.82
2019-02-17T06:51:58.139Z,101846.73
2019-02-17T06:53:03.417Z,101852.16
2019-02-17T06:54:08.679Z,101857.90
2019-02-17T06:55:36.183Z,101850.86
2019-02-17T06:56:45.411Z,101856.03
2019-02-17T06:57:49.844Z,101857.88
2019-02-17T06:58:55.258Z,101852.74
2019-02-17T07:00:13.275Z,101859.05
2019-02-17T07:01:24.733Z,101853.19
2019-02-17T07:02:26.002Z,101854.49
2019-02-17T07:03:31.008Z,101858.48
2019-02-17T07:04:54.149Z,101854.22
2019-02-17T07:06:11.987Z,101852.77
2019-02-17T07:07:16.705Z,101856.23
2019-02-17T07:08:21.982Z,101852.25
2019-02-17T07:09:26.953Z,101851.27
2019-02-17T07:10:31.934Z,101855.49
2019-02-17T07:11:37.489Z,101849.05
2019-02-17T07:12:42.789Z,101851.06
2019-02-17T07:13:47.738Z,101852.56
2019-02-17T07:14:53.389Z,101853.08
2019-02-17T07:15:58.113Z,101854.66
2019-02-17T07:17:03.125Z,101862.73
2019-02-17T07:18:07.826Z,101858.44
2019-02-17T07:19:12.797Z,101853.77
2019-02-17T07:20:18.054Z,101857.28
2019-02-17T07:21:23.327Z,101861.75
2019-02-17T07:22:29.874Z,101852.66
2019-02-17T07:23:35.161Z,101850.45
2019-02-17T07:24:40.435Z,101851.40
2019-02-17T07:25:45.706Z,101850.76
2019-02-17T07:26:50.665Z,101850.39
2019-02-17T07:27:55.811Z,101849.83
2019-02-17T07:29:01.398Z,101850.07
2019-02-17T07:30:06.615Z,101848.59
2019-02-17T07:31:11.308Z,101850.25
2019-02-17T07:32:16.346Z,101848.05
2019-02-17T07:33:21.648Z,101848.95
2019-02-17T07:34:27.001Z,101843.02
2019-02-17T07:35:32.284Z,101848.88
2019-02-17T07:36:37.607Z,101854.13
2019-02-17T07:37:42.900Z,101847.55
2019-02-17T07:38:47.932Z,101850.30
2019-02-17T07:39:53.086Z,101845.67
2019-02-17T07:40:58.340Z,101850.66
2019-02-17T07:42:03.506Z,101857.73
2019-02-17T07:43:09.067Z,101854.67
2019-02-17T07:44:14.637Z,101855.24
2019-02-17T07:45:20.235Z,101850.87
2019-02-17T07:46:25.626Z,101852.73
2019-02-17T07:47:31.301Z,101853.23
2019-02-17T07:48:36.957Z,101851.22
2019-02-17T07:49:42.678Z,101850.28
2019-02-17T07:50:47.776Z,101857.45
2019-02-17T07:51:53.125Z,101851.27
2019-02-17T07:52:58.643Z,101852.23
2019-02-17T07:54:03.139Z,101851.30
2019-02-17T07:55:08.470Z,101849.14
2019-02-17T07:56:13.804Z,101856.26
2019-02-17T07:57:18.767Z,101860.21
2019-02-17T07:58:23.448Z,101854.45
2019-02-17T07:59:28.432Z,101855.52
2019-02-17T08:00:32.885Z,101857.30
2019-02-17T08:01:44.966Z,101858.95
2019-02-17T08:02:44.934Z,101857.78
2019-02-17T08:03:49.523Z,101858.11
2019-02-17T08:04:57.423Z,101856.97
2019-02-17T08:06:02.664Z,101855.43
2019-02-17T08:07:07.690Z,101858.41
2019-02-17T08:08:13.235Z,101853.35
2019-02-17T08:09:18.569Z,101856.77
2019-02-17T08:10:23.861Z,101848.38
2019-02-17T08:11:29.311Z,101862.45
2019-02-17T08:12:34.371Z,101858.73
2019-02-17T08:13:39.380Z,101856.91
2019-02-17T08:14:44.668Z,101857.68
2019-02-17T08:15:49.793Z,101852.54
2019-02-17T08:16:54.875Z,101846.73
2019-02-17T08:17:59.913Z,101847.66
2019-02-17T08:19:05.184Z,101849.88
2019-02-17T08:20:10.536Z,101846.61
2019-02-17T08:21:15.449Z,101847.55
2019-02-17T08:22:20.708Z,101845.97
2019-02-17T08:23:25.688Z,101847.22
2019-02-17T08:24:30.708Z,101848.38
2019-02-17T08:25:35.661Z,101849.33
2019-02-17T08:26:40.761Z,101851.77
2019-02-17T08:27:46.339Z,101842.03
2019-02-17T08:28:51.360Z,101842.47
2019-02-17T08:29:56.318Z,101845.33
2019-02-17T08:31:01.307Z,101847.20
2019-02-17T08:32:06.040Z,101840.13
2019-02-17T08:33:10.991Z,101845.95
2019-02-17T08:34:16.244Z,101844.07
2019-02-17T08:35:21.291Z,101839.20
2019-02-17T08:36:25.772Z,101845.48
2019-02-17T08:37:30.759Z,101843.03
2019-02-17T08:38:35.996Z,101833.19
2019-02-17T08:39:40.922Z,101831.16
2019-02-17T08:40:46.190Z,101832.83
2019-02-17T08:41:51.469Z,101832.02
2019-02-17T08:42:56.435Z,101821.06
2019-02-17T08:44:01.742Z,101827.02
2019-02-17T08:45:06.627Z,101824.06
2019-02-17T08:46:11.358Z,101822.66
2019-02-17T08:47:16.888Z,101817.41
2019-02-17T08:48:22.106Z,101821.48
2019-02-17T08:49:27.063Z,101820.59
2019-02-17T08:50:31.737Z,101819.27
2019-02-17T08:51:36.187Z,101819.33
2019-02-17T08:52:41.722Z,101818.56
2019-02-17T08:53:47.281Z,101826.33
2019-02-17T08:54:52.840Z,101817.73
2019-02-17T08:55:58.042Z,101817.33
2019-02-17T08:57:03.007Z,101819.79
2019-02-17T08:58:08.053Z,101819.48
2019-02-17T08:59:13.285Z,101815.50
2019-02-17T09:00:18.570Z,101820.84
2019-02-17T09:01:23.926Z,101816.50
2019-02-17T09:02:29.365Z,101816.93
2019-02-17T09:03:34.400Z,101825.61
2019-02-17T09:04:39.388Z,101816.50
2019-02-17T09:05:44.582Z,101810.42
2019-02-17T09:06:49.482Z,101809.13
2019-02-17T09:07:57.750Z,101805.20
2019-02-17T09:09:02.197Z,101804.73
2019-02-17T09:10:08.347Z,101807.97
2019-02-17T09:11:13.093Z,101795.59
2019-02-17T09:12:18.664Z,101801.20
2019-02-17T09:13:23.920Z,101793.50
2019-02-17T09:14:28.626Z,101804.18
2019-02-17T09:15:33.925Z,101798.44
2019-02-17T09:16:38.868Z,101798.14
2019-02-17T09:17:43.581Z,101799.02
2019-02-17T09:18:48.842Z,101787.95
2019-02-17T09:19:53.963Z,101797.72
2019-02-17T09:20:58.699Z,101798.94
2019-02-17T09:22:03.658Z,101794.80
2019-02-17T09:23:08.352Z,101798.44
2019-02-17T09:24:13.082Z,101791.44
2019-02-17T09:25:18.359Z,101795.10
2019-02-17T09:26:23.150Z,101789.25
2019-02-17T09:27:28.146Z,101795.02
2019-02-17T09:28:33.866Z,101794.52
2019-02-17T09:29:38.737Z,101797.77
2019-02-17T09:30:43.180Z,101805.55
2019-02-17T09:31:48.171Z,101802.20
2019-02-17T09:32:53.005Z,101811.19
2019-02-17T09:33:58.572Z,101802.35
2019-02-17T09:35:03.260Z,101796.54
2019-02-17T09:36:07.956Z,101795.22
2019-02-17T09:37:12.993Z,101803.22
2019-02-17T09:38:18.547Z,101799.50
2019-02-17T09:39:23.002Z,101798.88
2019-02-17T09:40:28.270Z,101801.98
2019-02-17T09:41:33.834Z,101799.03
2019-02-17T09:42:41.194Z,101790.88
2019-02-17T09:43:46.184Z,101795.24
2019-02-17T09:44:51.063Z,101791.75
2019-02-17T09:45:57.144Z,101788.42
2019-02-17T09:47:02.093Z,101786.31
2019-02-17T09:48:07.563Z,101801.97
2019-02-17T09:49:12.267Z,101799.20
2019-02-17T09:50:17.292Z,101789.34
2019-02-17T09:51:22.402Z,101787.45
2019-02-17T09:52:27.645Z,101788.55
2019-02-17T09:53:32.438Z,101784.62
2019-02-17T09:54:37.768Z,101780.52
2019-02-17T09:55:43.205Z,101784.89
2019-02-17T09:56:48.468Z,101789.30
2019-02-17T09:57:53.766Z,101780.39
2019-02-17T09:58:59.136Z,101776.73
2019-02-17T10:00:04.193Z,101786.88
2019-02-17T10:01:09.174Z,101779.23
2019-02-17T10:02:13.861Z,101776.53
2019-02-17T10:03:19.196Z,101777.11
2019-02-17T10:04:24.466Z,101781.40
2019-02-17T10:05:29.796Z,101775.84
2019-02-17T10:06:35.370Z,101775.10
2019-02-17T10:07:40.510Z,101773.81
2019-02-17T10:08:45.766Z,101779.53
2019-02-17T10:09:51.194Z,101782.14
2019-02-17T10:11:01.814Z,101780.24
2019-02-17T10:12:09.775Z,101779.30
2019-02-17T10:13:15.338Z,101781.72
2019-02-17T10:14:20.622Z,101776.91
2019-02-17T10:15:26.704Z,101782.47
2019-02-17T10:16:32.011Z,101779.05
2019-02-17T10:17:37.287Z,101780.44
2019-02-17T10:18:42.556Z,101777.14
2019-02-17T10:19:47.291Z,101783.68
2019-02-17T10:20:55.045Z,101777.56
2019-02-17T10:22:00.337Z,101782.23
2019-02-17T10:23:05.132Z,101780.79
2019-02-17T10:24:11.005Z,101780.14
2019-02-17T10:25:18.511Z,101780.72
2019-02-17T10:26:23.966Z,101782.73
2019-02-17T10:27:28.654Z,101777.84
2019-02-17T10:28:42.110Z,101777.73
2019-02-17T10:29:41.533Z,101771.55
2019-02-17T10:30:46.532Z,101772.23
2019-02-17T10:31:51.660Z,101774.53
2019-02-17T10:32:56.445Z,101779.40
2019-02-17T10:34:03.443Z,101780.46
2019-02-17T10:35:08.172Z,101774.88
2019-02-17T10:36:12.873Z,101774.99
2019-02-17T10:37:17.897Z,101771.50
2019-02-17T10:38:22.599Z,101772.41
2019-02-17T10:39:27.597Z,101775.12
2019-02-17T10:40:32.894Z,101771.27
2019-02-17T10:41:37.896Z,101770.43
2019-02-17T10:42:43.413Z,101770.05
2019-02-17T10:43:48.697Z,101772.02
2019-02-17T10:44:54.008Z,101777.81
2019-02-17T10:45:59.234Z,101775.31
2019-02-17T10:47:04.533Z,101765.63
2019-02-17T10:48:10.074Z,101755.09
2019-02-17T10:49:15.258Z,101757.48
2019-02-17T10:50:20.390Z,101754.00
2019-02-17T10:51:26.522Z,101759.37
2019-02-17T10:52:31.508Z,101748.22
2019-02-17T10:53:36.013Z,101750.07
2019-02-17T10:54:40.981Z,101745.58
2019-02-17T10:55:46.534Z,101751.53
2019-02-17T10:56:51.857Z,101752.27
2019-02-17T10:57:57.286Z,101751.27
2019-02-17T10:59:02.566Z,101748.28
2019-02-17T11:00:10.147Z,101750.97
2019-02-17T11:01:15.134Z,101745.08
2019-02-17T11:02:20.147Z,101750.91
2019-02-17T11:03:25.153Z,101747.34
2019-02-17T11:04:30.151Z,101737.80
2019-02-17T11:05:40.180Z,101755.84
2019-02-17T11:06:45.728Z,101749.03
2019-02-17T11:07:50.757Z,101742.78
2019-02-17T11:08:58.039Z,101742.27
2019-02-17T11:10:03.087Z,101744.83
2019-02-17T11:11:07.885Z,101747.94
2019-02-17T11:12:13.441Z,101739.61
2019-02-17T11:13:18.837Z,101735.14
2019-02-17T11:14:23.924Z,101730.94
2019-02-17T11:15:28.706Z,101721.52
2019-02-17T11:16:34.004Z,101715.32
2019-02-17T11:17:39.087Z,101716.65
2019-02-17T11:18:44.353Z,101712.33
2019-02-17T11:19:49.594Z,101703.63
2019-02-17T11:20:54.488Z,101712.25
2019-02-17T11:21:59.740Z,101707.98
2019-02-17T11:23:04.732Z,101704.89
2019-02-17T11:24:09.756Z,101710.02
2019-02-17T11:25:14.770Z,101708.78
2019-02-17T11:26:19.774Z,101706.45
2019-02-17T11:27:25.095Z,101702.04
2019-02-17T11:28:29.812Z,101703.50
2019-02-17T11:29:34.802Z,101700.10
2019-02-17T11:30:40.165Z,101703.72
2019-02-17T11:31:45.116Z,101697.55
2019-02-17T11:32:57.586Z,101704.50
2019-02-17T11:33:56.603Z,101702.30
2019-02-17T11:35:01.303Z,101705.50
2019-02-17T11:36:06.013Z,101705.50
2019-02-17T11:37:11.285Z,101699.06
2019-02-17T11:38:16.286Z,101699.06
2019-02-17T11:39:21.453Z,101696.16
2019-02-17T11:40:25.950Z,101644.98
2019-02-17T11:41:30.422Z,101706.25
2019-02-17T11:42:35.481Z,101695.77
2019-02-17T11:43:40.484Z,101693.28
2019-02-17T11:44:45.561Z,101688.53
2019-02-17T11:45:50.255Z,101670.86
2019-02-17T11:46:55.379Z,101670.86
2019-02-17T11:48:00.627Z,101646.20
2019-02-17T11:49:05.334Z,101684.64
2019-02-17T11:50:10.125Z,101672.52
2019-02-17T11:51:15.093Z,101672.52
2019-02-17T11:52:20.072Z,101676.16
2019-02-17T11:53:24.534Z,101675.06
2019-02-17T11:54:29.558Z,101673.03
2019-02-17T11:55:34.558Z,101670.91
2019-02-17T11:56:39.633Z,101666.14
2019-02-17T11:57:44.398Z,101662.78
2019-02-17T11:58:49.390Z,101670.66
2019-02-17T11:59:54.093Z,101678.42
2019-02-17T12:00:59.129Z,101664.07
2019-02-17T12:02:04.110Z,101659.53
2019-02-17T12:03:09.121Z,101660.79
2019-02-17T12:04:14.094Z,101658.91
2019-02-17T12:05:19.066Z,101666.20
2019-02-17T12:06:24.108Z,101663.20
2019-02-17T12:07:28.837Z,101654.55
2019-02-17T12:08:34.388Z,101655.47
2019-02-17T12:09:39.091Z,101655.47
2019-02-17T12:10:44.108Z,101653.02
2019-02-17T12:11:49.139Z,101660.33
2019-02-17T12:12:54.528Z,101648.80
2019-02-17T12:14:00.088Z,101660.55
2019-02-17T12:15:04.675Z,101649.70
2019-02-17T12:16:09.972Z,101649.70
2019-02-17T12:17:14.991Z,101657.31
2019-02-17T12:18:21.107Z,101649.64
2019-02-17T12:19:26.099Z,101645.33
2019-02-17T12:20:53.382Z,101645.33
2019-02-17T12:22:18.896Z,101766.88
2019-02-17T12:23:34.254Z,101639.06
2019-02-17T12:24:57.753Z,101639.89
2019-02-17T12:26:09.983Z,101639.89
2019-02-17T12:27:49.044Z,101640.53